Time;durP1;ratioP1;P1;durP2;ratioP2;P2;SDS_P1;SDS_P2;PMS_P1;PMS_P2;Temp;Humidity;BMP_temperature;BMP_pressure;BME280_temperature;BME280_humidity;BME280_pressure;Samples;Min_cycle;Max_cycle;Signal;HPM_P1;HPM_P2
2022/04/05 00:00:05;;;;;;;11.75;9.07;;;7.60;99.90;;;;;;5071940;28;20473;-59
2022/04/05 00:02:32;;;;;;;12.40;9.73;;;7.70;99.90;;;;;;5071737;28;20498;-58
2022/04/05 00:05:02;;;;;;;12.53;9.77;;;7.70;99.90;;;;;;5071759;28;20554;-60
2022/04/05 00:07:29;;;;;;;11.88;9.00;;;7.80;99.90;;;;;;5071252;28;20555;-59
2022/04/05 00:09:55;;;;;;;11.70;8.95;;;7.80;99.90;;;;;;5071479;28;20462;-57
2022/04/05 00:12:22;;;;;;;12.27;9.38;;;7.80;99.90;;;;;;5071610;28;20473;-59
2022/04/05 00:14:49;;;;;;;13.00;9.70;;;7.80;99.90;;;;;;5071651;28;20407;-59
2022/04/05 00:17:18;;;;;;;13.60;9.82;;;7.80;99.90;;;;;;5071129;28;20428;-59
2022/04/05 00:19:45;;;;;;;14.90;10.40;;;7.90;99.90;;;;;;5071288;28;20451;-60
2022/04/05 00:22:11;;;;;;;16.00;11.45;;;7.90;99.90;;;;;;5071300;28;20412;-59
2022/04/05 00:24:38;;;;;;;15.40;11.13;;;8.00;99.90;;;;;;5071524;28;20412;-59
2022/04/05 00:27:05;;;;;;;15.97;11.60;;;8.00;99.90;;;;;;5071009;28;20411;-58
2022/04/05 00:29:32;;;;;;;17.15;11.63;;;8.00;99.90;;;;;;5071480;28;20412;-59
2022/04/05 00:31:58;;;;;;;14.57;10.37;;;8.00;99.90;;;;;;5071132;28;20856;-59
2022/04/05 00:34:26;;;;;;;14.57;9.88;;;8.00;99.90;;;;;;5071181;28;20886;-59
2022/04/05 00:36:53;;;;;;;15.40;10.25;;;8.10;99.90;;;;;;5070457;28;20770;-57
2022/04/05 00:39:20;;;;;;;13.93;10.05;;;8.10;99.90;;;;;;5071161;28;20523;-59
2022/04/05 00:41:48;;;;;;;13.60;9.68;;;8.10;99.90;;;;;;5070956;28;20412;-60
2022/04/05 00:44:15;;;;;;;13.02;9.70;;;8.20;99.90;;;;;;5070680;28;20447;-57
2022/04/05 00:46:42;;;;;;;14.60;10.13;;;8.20;99.90;;;;;;5070618;28;20416;-58
2022/04/05 00:49:15;;;;;;;14.30;10.13;;;8.20;99.90;;;;;;5070739;28;20472;-59
2022/04/05 00:51:43;;;;;;;15.55;11.15;;;8.30;99.90;;;;;;5070775;28;20909;-59
2022/04/05 00:54:12;;;;;;;14.35;10.88;;;8.30;99.90;;;;;;5070652;28;20416;-60
2022/04/05 00:56:41;;;;;;;15.43;11.02;;;8.20;99.90;;;;;;5070479;28;20951;-59
2022/04/05 00:59:10;;;;;;;15.15;11.18;;;8.30;99.90;;;;;;5070713;28;20435;-57
2022/04/05 01:01:38;;;;;;;15.10;11.17;;;8.30;99.90;;;;;;5070756;28;20411;-59
2022/04/05 01:04:07;;;;;;;15.25;11.23;;;8.30;99.90;;;;;;5070571;28;20934;-58
2022/04/05 01:06:39;;;;;;;17.15;12.00;;;8.30;99.90;;;;;;5070202;28;20407;-60
2022/04/05 01:09:09;;;;;;;17.43;12.50;;;8.30;99.90;;;;;;5070685;28;20931;-59
2022/04/05 01:11:36;;;;;;;16.00;11.60;;;8.30;99.90;;;;;;5070908;28;20520;-59
2022/04/05 01:14:02;;;;;;;16.02;11.13;;;8.40;99.90;;;;;;5070710;28;20469;-59
2022/04/05 01:16:29;;;;;;;15.00;10.98;;;8.40;99.90;;;;;;5070347;28;20461;-60
2022/04/05 01:18:56;;;;;;;14.25;10.45;;;8.50;99.90;;;;;;5070524;28;20906;-60
2022/04/05 01:21:22;;;;;;;13.32;9.90;;;8.50;99.90;;;;;;5071088;28;20403;-59
2022/04/05 01:24:08;;;;;;;14.60;10.68;;;8.50;99.90;;;;;;5070261;28;20415;-59
2022/04/05 01:26:39;;;;;;;13.90;9.98;;;8.50;99.90;;;;;;5070607;28;20909;-59
2022/04/05 01:29:06;;;;;;;13.70;9.60;;;8.50;99.90;;;;;;5070485;28;20490;-59
2022/04/05 01:31:37;;;;;;;13.83;9.83;;;8.60;99.90;;;;;;5070613;28;20408;-60
2022/04/05 01:34:04;;;;;;;13.85;9.95;;;8.60;99.90;;;;;;5070420;28;20415;-60
2022/04/05 01:36:30;;;;;;;13.95;10.10;;;8.50;99.90;;;;;;5070230;28;20918;-59
2022/04/05 01:38:57;;;;;;;16.10;10.45;;;8.60;99.90;;;;;;5070481;28;20933;-60
2022/04/05 01:41:25;;;;;;;15.45;10.60;;;8.60;99.90;;;;;;5070697;28;20915;-59
2022/04/05 01:43:52;;;;;;;15.98;11.13;;;8.60;99.90;;;;;;5071224;28;20415;-59
2022/04/05 01:46:18;;;;;;;17.67;12.15;;;8.60;99.90;;;;;;5070068;28;20416;-59
2022/04/05 01:48:45;;;;;;;19.23;12.70;;;8.60;99.90;;;;;;5070554;28;20490;-59
2022/04/05 01:51:12;;;;;;;19.13;12.35;;;8.60;99.90;;;;;;5070131;28;20411;-59
2022/04/05 01:53:39;;;;;;;18.60;12.67;;;8.70;99.90;;;;;;5070301;28;20442;-59
2022/04/05 01:56:05;;;;;;;19.55;13.40;;;8.80;99.90;;;;;;5069858;28;20481;-59
2022/04/05 01:58:36;;;;;;;19.80;13.05;;;8.80;99.90;;;;;;5070510;28;20755;-59
2022/04/05 02:01:03;;;;;;;20.73;13.40;;;8.80;99.90;;;;;;5070505;28;20491;-59
2022/04/05 02:03:30;;;;;;;22.13;15.02;;;8.80;99.90;;;;;;5070091;28;20419;-58
2022/04/05 02:05:57;;;;;;;23.58;14.85;;;8.70;99.90;;;;;;5069802;28;20416;-59
2022/04/05 02:08:23;;;;;;;24.55;15.23;;;8.80;99.90;;;;;;5069875;28;20416;-57
2022/04/05 02:10:50;;;;;;;23.70;14.07;;;8.70;99.90;;;;;;5070146;28;20419;-57
2022/04/05 02:13:17;;;;;;;11.20;7.63;;;8.80;99.90;;;;;;5070140;28;20419;-58
2022/04/05 02:15:45;;;;;;;7.57;5.20;;;8.70;99.90;;;;;;5069795;28;20446;-57
2022/04/05 02:18:11;;;;;;;7.55;4.90;;;8.60;99.90;;;;;;5069794;28;20441;-60
2022/04/05 02:20:39;;;;;;;4.50;3.50;;;8.50;99.90;;;;;;5069691;28;20415;-58
2022/04/05 02:23:06;;;;;;;5.07;3.97;;;8.30;99.90;;;;;;5069806;28;20416;-59
2022/04/05 02:25:32;;;;;;;5.28;4.05;;;8.10;99.90;;;;;;5070225;28;20415;-59
2022/04/05 02:27:59;;;;;;;4.70;3.83;;;8.20;99.90;;;;;;5069756;28;20469;-59
2022/04/05 02:30:26;;;;;;;5.32;3.85;;;8.10;99.90;;;;;;5069962;28;20465;-59
2022/04/05 02:32:54;;;;;;;5.50;4.30;;;8.20;99.90;;;;;;5070162;28;20916;-59
2022/04/05 02:35:20;;;;;;;7.68;4.57;;;8.20;99.90;;;;;;5071097;28;20554;-58
2022/04/05 02:37:47;;;;;;;6.97;4.80;;;8.20;99.90;;;;;;5072729;28;20415;-58
2022/04/05 02:40:14;;;;;;;6.88;4.72;;;8.20;99.90;;;;;;5073594;28;20504;-59
2022/04/05 02:42:40;;;;;;;6.72;5.25;;;8.20;99.90;;;;;;5073267;28;20777;-59
2022/04/05 02:45:08;;;;;;;7.50;5.25;;;8.20;99.90;;;;;;5073264;28;20829;-59
2022/04/05 02:47:35;;;;;;;6.50;5.20;;;8.30;99.90;;;;;;5072654;28;20452;-57
2022/04/05 02:50:03;;;;;;;8.43;5.70;;;8.30;99.90;;;;;;5073133;28;20411;-59
2022/04/05 02:52:30;;;;;;;6.60;5.18;;;8.30;99.90;;;;;;5072629;28;20419;-59
2022/04/05 02:54:56;;;;;;;8.02;5.38;;;8.30;99.90;;;;;;5072874;28;20526;-59
2022/04/05 02:57:23;;;;;;;6.75;5.53;;;8.30;99.90;;;;;;5072778;28;20461;-59
2022/04/05 02:59:49;;;;;;;7.90;6.27;;;8.30;99.90;;;;;;5073018;28;20423;-59
2022/04/05 03:02:16;;;;;;;8.52;6.35;;;8.40;99.90;;;;;;5073056;28;20473;-57
2022/04/05 03:04:43;;;;;;;6.45;5.43;;;8.20;99.90;;;;;;5072628;28;20488;-59
2022/04/05 03:07:10;;;;;;;6.97;5.57;;;8.20;99.90;;;;;;5072382;28;20423;-59
2022/04/05 03:09:37;;;;;;;7.35;6.30;;;8.00;99.90;;;;;;5072839;28;20477;-57
2022/04/05 03:12:04;;;;;;;8.10;6.50;;;8.00;99.90;;;;;;5072824;28;20423;-58
2022/04/05 03:14:31;;;;;;;10.40;7.05;;;8.00;99.90;;;;;;5072846;28;20414;-58
2022/04/05 03:16:58;;;;;;;7.43;6.60;;;8.00;99.90;;;;;;5072261;28;20419;-58
2022/04/05 03:19:24;;;;;;;7.85;6.40;;;8.00;99.90;;;;;;5072375;28;20446;-58
2022/04/05 03:21:51;;;;;;;8.25;6.60;;;7.90;99.90;;;;;;5072528;28;20814;-59
2022/04/05 03:24:19;;;;;;;8.05;6.75;;;7.80;99.90;;;;;;5072692;28;20411;-58
2022/04/05 03:26:46;;;;;;;6.55;5.57;;;7.90;99.90;;;;;;5072274;28;20419;-59
2022/04/05 03:29:13;;;;;;;5.80;5.07;;;8.00;99.90;;;;;;5072482;28;20415;-60
2022/04/05 03:31:39;;;;;;;6.70;5.40;;;7.80;99.90;;;;;;5072434;28;20415;-59
2022/04/05 03:34:06;;;;;;;6.00;4.78;;;7.80;99.90;;;;;;5072014;28;20415;-59
2022/04/05 03:36:33;;;;;;;6.35;5.15;;;7.70;99.90;;;;;;5071857;28;20909;-60
2022/04/05 03:39:00;;;;;;;5.88;5.15;;;7.70;99.90;;;;;;5072317;28;20432;-58
2022/04/05 03:41:29;;;;;;;5.43;4.90;;;7.80;99.90;;;;;;5072297;28;20835;-59
2022/04/05 03:43:56;;;;;;;5.90;5.00;;;7.80;99.90;;;;;;5071957;28;20416;-59
2022/04/05 03:46:22;;;;;;;6.77;5.10;;;7.90;99.90;;;;;;5071159;28;20426;-59
2022/04/05 03:48:49;;;;;;;8.95;5.65;;;8.00;99.90;;;;;;5071864;28;20924;-59
2022/04/05 03:51:16;;;;;;;7.45;5.72;;;8.00;99.90;;;;;;5071938;28;20477;-59
2022/04/05 03:53:42;;;;;;;5.93;5.13;;;8.10;99.90;;;;;;5072242;28;20465;-59
2022/04/05 03:56:09;;;;;;;6.77;6.07;;;8.20;99.90;;;;;;5071095;28;20448;-57
2022/04/05 03:58:37;;;;;;;6.50;5.80;;;8.30;99.90;;;;;;5071591;28;20428;-58
2022/04/05 04:01:04;;;;;;;7.05;5.72;;;8.40;99.90;;;;;;5071505;28;20416;-59
2022/04/05 04:03:30;;;;;;;8.43;7.35;;;8.30;99.90;;;;;;5071928;28;20411;-57
2022/04/05 04:05:57;;;;;;;10.43;8.30;;;8.30;99.90;;;;;;5071360;28;20415;-59
2022/04/05 04:08:24;;;;;;;10.98;8.73;;;8.30;99.90;;;;;;5070848;28;20442;-59
2022/04/05 04:10:51;;;;;;;11.50;9.00;;;8.40;99.90;;;;;;5071509;28;20445;-59
2022/04/05 04:13:18;;;;;;;12.00;9.32;;;8.40;99.90;;;;;;5071410;28;20422;-58
2022/04/05 04:15:46;;;;;;;12.77;9.60;;;8.40;99.90;;;;;;5071336;28;20457;-59
2022/04/05 04:18:13;;;;;;;12.65;10.02;;;8.40;99.90;;;;;;5071150;28;20416;-60
2022/04/05 04:20:42;;;;;;;11.77;10.13;;;8.50;99.90;;;;;;5071511;28;20415;-60
2022/04/05 04:23:09;;;;;;;12.38;9.77;;;8.50;99.90;;;;;;5071629;28;20418;-58
2022/04/05 04:25:37;;;;;;;13.67;10.67;;;8.40;99.90;;;;;;5071394;28;20416;-59
2022/04/05 04:28:05;;;;;;;15.40;11.80;;;8.40;99.90;;;;;;5071029;28;20477;-60
2022/04/05 04:30:32;;;;;;;14.55;11.65;;;8.40;99.90;;;;;;5071256;28;20423;-59
2022/04/05 04:33:00;;;;;;;14.95;12.48;;;8.50;99.90;;;;;;5070932;28;20424;-60
2022/04/05 04:35:26;;;;;;;16.10;12.10;;;8.50;99.90;;;;;;5070912;28;20415;-59
2022/04/05 04:37:53;;;;;;;15.68;11.90;;;8.60;99.90;;;;;;5070794;28;20556;-60
2022/04/05 04:40:20;;;;;;;16.20;12.05;;;8.50;99.90;;;;;;5070969;28;20489;-60
2022/04/05 04:42:47;;;;;;;17.45;12.38;;;8.50;99.90;;;;;;5070931;28;20415;-60
2022/04/05 04:45:14;;;;;;;17.52;12.98;;;8.50;99.90;;;;;;5071334;28;20484;-59
2022/04/05 04:47:42;;;;;;;15.90;12.02;;;8.50;99.90;;;;;;5070944;28;20428;-60
2022/04/05 04:50:11;;;;;;;14.45;12.15;;;8.50;99.90;;;;;;5071326;28;20461;-59
2022/04/05 04:52:38;;;;;;;15.35;11.65;;;8.50;99.90;;;;;;5070948;28;20491;-61
2022/04/05 04:55:06;;;;;;;13.85;10.82;;;8.50;99.90;;;;;;5070808;28;20845;-60
2022/04/05 04:57:33;;;;;;;13.27;9.88;;;8.50;99.90;;;;;;5069871;28;20422;-59
2022/04/05 05:00:00;;;;;;;12.55;9.82;;;8.40;99.90;;;;;;5070830;28;20974;-59
2022/04/05 05:02:26;;;;;;;13.00;9.80;;;8.50;99.90;;;;;;5070850;28;20897;-60
2022/04/05 05:04:53;;;;;;;13.15;10.10;;;8.40;99.90;;;;;;5070913;28;20412;-60
2022/04/05 05:07:21;;;;;;;12.50;9.50;;;8.40;99.90;;;;;;5070395;28;20469;-59
2022/04/05 05:09:48;;;;;;;12.73;9.52;;;8.50;99.90;;;;;;5070447;28;20416;-60
2022/04/05 05:12:14;;;;;;;13.00;9.85;;;8.50;99.90;;;;;;5070559;28;20943;-60
2022/04/05 05:14:41;;;;;;;14.82;10.40;;;8.40;99.90;;;;;;5070558;28;20411;-59
2022/04/05 05:17:08;;;;;;;13.73;9.57;;;8.30;99.90;;;;;;5070077;28;20460;-60
2022/04/05 05:19:35;;;;;;;12.52;8.93;;;8.30;99.90;;;;;;5070600;28;20436;-59
2022/04/05 05:22:01;;;;;;;13.93;9.32;;;8.30;99.90;;;;;;5070379;28;20423;-59
2022/04/05 05:24:29;;;;;;;14.73;9.32;;;8.40;99.90;;;;;;5070439;28;20411;-59
2022/04/05 05:26:56;;;;;;;11.60;9.05;;;8.30;99.90;;;;;;5069800;28;20419;-59
2022/04/05 05:29:22;;;;;;;17.38;9.45;;;8.40;99.90;;;;;;5070689;28;20407;-59
2022/04/05 05:31:49;;;;;;;15.30;9.93;;;8.30;99.90;;;;;;5070617;28;20415;-59
2022/04/05 05:34:21;;;;;;;14.13;9.87;;;8.30;99.90;;;;;;5070357;28;20491;-59
2022/04/05 05:36:47;;;;;;;13.43;9.95;;;8.50;99.90;;;;;;5069859;28;20411;-58
2022/04/05 05:39:14;;;;;;;14.90;10.68;;;8.40;99.90;;;;;;5069962;28;20477;-59
2022/04/05 05:41:42;;;;;;;15.60;10.88;;;8.50;99.90;;;;;;5070572;28;20457;-58
2022/04/05 05:44:09;;;;;;;16.70;10.93;;;8.50;99.90;;;;;;5070197;28;20449;-59
2022/04/05 05:46:35;;;;;;;16.40;11.00;;;8.50;99.90;;;;;;5069943;28;20477;-59
2022/04/05 05:49:02;;;;;;;18.23;11.90;;;8.40;99.90;;;;;;5070010;28;20484;-58
2022/04/05 05:51:28;;;;;;;17.08;10.93;;;8.30;99.90;;;;;;5070130;28;20415;-57
2022/04/05 05:53:55;;;;;;;19.42;11.93;;;8.20;99.90;;;;;;5070491;28;20499;-54
2022/04/05 05:56:22;;;;;;;22.45;12.45;;;8.00;99.90;;;;;;5069983;28;20979;-60
2022/04/05 05:58:50;;;;;;;18.10;11.70;;;8.10;99.90;;;;;;5070814;28;20407;-60
2022/04/05 06:01:17;;;;;;;18.30;11.32;;;8.30;99.90;;;;;;5070248;28;20469;-59
2022/04/05 06:03:44;;;;;;;19.02;11.73;;;8.40;99.90;;;;;;5070482;28;20461;-55
2022/04/05 06:06:10;;;;;;;19.27;10.95;;;8.50;99.90;;;;;;5069366;28;20411;-58
2022/04/05 06:08:37;;;;;;;16.80;11.20;;;8.50;99.90;;;;;;5070040;28;20407;-58
2022/04/05 06:11:05;;;;;;;17.50;11.37;;;8.60;99.90;;;;;;5073915;28;20457;-58
2022/04/05 06:13:32;;;;;;;19.23;11.77;;;8.60;99.90;;;;;;5073924;28;20502;-59
2022/04/05 06:15:59;;;;;;;22.80;12.57;;;8.60;99.90;;;;;;5073529;28;20418;-57
2022/04/05 06:18:26;;;;;;;20.17;11.27;;;8.60;99.90;;;;;;5073560;28;20920;-59
2022/04/05 06:20:53;;;;;;;20.70;11.85;;;8.60;99.90;;;;;;5073614;28;20930;-60
2022/04/05 06:23:19;;;;;;;19.55;11.55;;;8.60;99.90;;;;;;5073658;28;20461;-59
2022/04/05 06:25:46;;;;;;;21.55;12.18;;;8.60;99.90;;;;;;5073642;28;20829;-58
2022/04/05 06:28:15;;;;;;;23.13;12.35;;;8.70;99.90;;;;;;5073625;28;20407;-58
2022/04/05 06:30:42;;;;;;;24.13;13.37;;;8.80;99.90;;;;;;5073671;28;20917;-59
2022/04/05 06:33:11;;;;;;;23.52;13.05;;;8.90;99.90;;;;;;5073564;28;20419;-59
2022/04/05 06:35:38;;;;;;;21.58;13.15;;;8.90;99.90;;;;;;5073341;28;20948;-58
2022/04/05 06:38:06;;;;;;;25.30;13.90;;;8.90;99.90;;;;;;5073074;28;20416;-60
2022/04/05 06:40:33;;;;;;;25.17;13.90;;;8.90;99.90;;;;;;5073174;28;20987;-60
2022/04/05 06:43:00;;;;;;;26.10;14.77;;;8.90;99.90;;;;;;5073600;28;20420;-56
2022/04/05 06:45:27;;;;;;;27.35;15.23;;;8.90;99.90;;;;;;5073167;28;20416;-59
2022/04/05 06:47:54;;;;;;;26.87;16.00;;;9.00;99.90;;;;;;5072546;28;20598;-59
2022/04/05 06:50:24;;;;;;;26.23;16.17;;;8.90;99.90;;;;;;5073293;28;20407;-59
2022/04/05 06:52:52;;;;;;;29.85;16.50;;;9.00;99.90;;;;;;5072988;28;20495;-56
2022/04/05 06:55:19;;;;;;;28.90;17.23;;;9.00;99.90;;;;;;5072695;28;20759;-57
2022/04/05 06:57:46;;;;;;;30.52;16.48;;;9.10;99.90;;;;;;5072317;28;20465;-59
2022/04/05 07:00:14;;;;;;;31.17;18.00;;;9.10;99.90;;;;;;5072671;28;20584;-58
2022/04/05 07:02:41;;;;;;;28.42;16.83;;;9.20;99.90;;;;;;5073063;28;20502;-57
2022/04/05 07:05:09;;;;;;;29.05;17.15;;;9.30;99.90;;;;;;5072797;28;20445;-56
2022/04/05 07:07:37;;;;;;;27.65;17.52;;;9.30;99.90;;;;;;5072421;28;20493;-59
2022/04/05 07:10:05;;;;;;;25.48;17.52;;;9.40;99.90;;;;;;5073236;28;20766;-58
2022/04/05 07:12:32;;;;;;;25.90;16.88;;;9.40;99.90;;;;;;5072733;28;20415;-59
2022/04/05 07:14:58;;;;;;;25.38;16.73;;;9.50;99.90;;;;;;5072293;28;20415;-59
2022/04/05 07:17:26;;;;;;;22.92;16.23;;;9.50;99.90;;;;;;5072526;28;20820;-58
2022/04/05 07:19:52;;;;;;;22.90;16.08;;;9.60;99.90;;;;;;5072602;28;20510;-59
2022/04/05 07:22:19;;;;;;;24.58;16.70;;;9.60;99.90;;;;;;5071720;28;20829;-60
2022/04/05 07:24:48;;;;;;;23.60;15.70;;;9.60;99.90;;;;;;5062838;28;20493;-61
2022/04/05 07:27:15;;;;;;;26.23;17.48;;;9.60;99.90;;;;;;5071724;28;20473;-60
2022/04/05 07:29:41;;;;;;;26.27;17.55;;;9.60;99.90;;;;;;5072537;28;20502;-60
2022/04/05 07:32:08;;;;;;;24.77;17.10;;;9.60;99.90;;;;;;5071871;28;20918;-59
2022/04/05 07:34:35;;;;;;;24.40;17.05;;;9.70;99.90;;;;;;5071660;28;20412;-57
2022/04/05 07:37:01;;;;;;;26.48;18.30;;;9.70;99.90;;;;;;5070238;28;20419;-59
2022/04/05 07:39:28;;;;;;;27.50;18.65;;;9.70;99.90;;;;;;5068413;28;20415;-58
2022/04/05 07:41:57;;;;;;;27.13;18.07;;;9.70;99.90;;;;;;5065670;28;20472;-57
2022/04/05 07:44:24;;;;;;;27.10;18.60;;;9.70;99.90;;;;;;5051808;28;20453;-58
2022/04/05 07:46:52;;;;;;;27.17;18.23;;;9.70;99.90;;;;;;5051628;28;20421;-63
2022/04/05 07:49:19;;;;;;;25.23;17.80;;;9.80;99.90;;;;;;5067373;28;20411;-62
2022/04/05 07:51:45;;;;;;;25.67;17.80;;;9.80;99.90;;;;;;5070973;28;20450;-63
2022/04/05 07:54:12;;;;;;;26.00;17.80;;;9.80;99.90;;;;;;5071179;28;20411;-64
2022/04/05 07:56:39;;;;;;;22.02;17.02;;;9.80;99.90;;;;;;5070817;28;20437;-64
2022/04/05 07:59:07;;;;;;;22.30;15.85;;;9.80;99.90;;;;;;5057428;28;20492;-63
2022/04/05 08:01:34;;;;;;;20.95;14.93;;;9.90;99.90;;;;;;5070808;28;20477;-62
2022/04/05 08:04:00;;;;;;;22.17;15.70;;;9.80;99.90;;;;;;5062760;28;20420;-64
2022/04/05 08:06:28;;;;;;;22.75;15.55;;;9.80;99.90;;;;;;5070971;28;20415;-64
2022/04/05 08:08:56;;;;;;;22.27;15.50;;;9.80;99.90;;;;;;5069012;28;20415;-64
2022/04/05 08:11:22;;;;;;;20.67;14.90;;;9.80;99.90;;;;;;5053501;28;20421;-63
2022/04/05 08:13:49;;;;;;;22.58;15.20;;;9.80;99.90;;;;;;5061648;28;20416;-64
2022/04/05 08:16:17;;;;;;;22.05;15.15;;;9.80;99.90;;;;;;5053974;28;20447;-61
2022/04/05 08:18:44;;;;;;;20.73;15.02;;;9.90;99.90;;;;;;5051171;28;20504;-60
2022/04/05 08:21:10;;;;;;;21.40;15.30;;;9.90;99.90;;;;;;5050882;28;20425;-59
2022/04/05 08:23:38;;;;;;;21.90;14.98;;;9.90;99.90;;;;;;5050819;28;20773;-60
2022/04/05 08:26:05;;;;;;;21.08;14.77;;;10.00;99.90;;;;;;5060048;28;20783;-61
2022/04/05 08:28:32;;;;;;;18.30;14.77;;;10.00;99.90;;;;;;5051048;28;20463;-60
2022/04/05 08:30:58;;;;;;;35.58;22.85;;;10.00;99.90;;;;;;5066498;28;20416;-61
2022/04/05 08:33:27;;;;;;;19.40;14.45;;;10.10;99.90;;;;;;5070850;28;20415;-60
2022/04/05 08:35:55;;;;;;;20.25;14.95;;;10.10;99.90;;;;;;5070200;28;20438;-61
2022/04/05 08:38:22;;;;;;;20.43;14.70;;;10.10;99.90;;;;;;5070528;28;20447;-60
2022/04/05 08:40:49;;;;;;;20.67;15.18;;;10.00;99.90;;;;;;5054994;28;20864;-60
2022/04/05 08:43:16;;;;;;;20.40;15.32;;;10.00;99.90;;;;;;5059289;28;20419;-60
2022/04/05 08:45:46;;;;;;;21.90;15.93;;;10.00;99.90;;;;;;5070476;28;20407;-59
2022/04/05 08:48:14;;;;;;;22.77;15.73;;;10.00;99.90;;;;;;5070243;28;20805;-60
2022/04/05 08:50:42;;;;;;;22.60;15.73;;;10.10;99.90;;;;;;5056960;28;20780;-60
2022/04/05 08:53:09;;;;;;;21.60;15.38;;;10.10;99.90;;;;;;5050644;28;20409;-60
2022/04/05 08:55:36;;;;;;;21.35;16.02;;;10.10;99.90;;;;;;5050313;28;20417;-60
2022/04/05 08:58:03;;;;;;;21.52;16.10;;;10.00;99.90;;;;;;5050326;28;20414;-61
2022/04/05 09:00:29;;;;;;;22.60;16.25;;;10.10;99.90;;;;;;5050517;28;20433;-61
2022/04/05 09:02:59;;;;;;;20.63;15.18;;;10.10;99.90;;;;;;5049777;28;21302;-59
2022/04/05 09:05:31;;;;;;;21.98;15.95;;;10.20;99.90;;;;;;5049980;28;20884;-61
2022/04/05 09:08:19;;;;;;;22.27;16.38;;;10.20;99.90;;;;;;5058473;28;20417;-61
2022/04/05 09:10:48;;;;;;;24.13;16.38;;;10.30;99.90;;;;;;5065630;28;20959;-62
2022/04/05 09:13:19;;;;;;;21.25;15.77;;;10.30;99.90;;;;;;5069520;28;20423;-61
2022/04/05 09:15:50;;;;;;;20.85;16.02;;;10.30;99.90;;;;;;5061017;28;20427;-64
2022/04/05 09:18:34;;;;;;;24.65;16.92;;;10.30;99.90;;;;;;5068951;28;20416;-60
2022/04/05 09:21:02;;;;;;;27.13;18.23;;;10.30;99.90;;;;;;5069927;28;20428;-60
2022/04/05 09:23:33;;;;;;;23.02;17.15;;;10.30;99.90;;;;;;5069657;28;20502;-60
2022/04/05 09:26:01;;;;;;;21.90;16.27;;;10.30;99.90;;;;;;5069737;28;20473;-59
2022/04/05 09:28:31;;;;;;;21.30;15.98;;;10.30;99.90;;;;;;5070330;28;20422;-60
2022/04/05 09:31:00;;;;;;;19.30;15.07;;;10.40;99.90;;;;;;5070003;28;20463;-60
2022/04/05 09:33:29;;;;;;;20.33;16.15;;;10.40;99.90;;;;;;5070105;28;20415;-58
2022/04/05 09:36:11;;;;;;;18.83;15.18;;;10.50;99.90;;;;;;5069429;28;20823;-59
2022/04/05 09:38:42;;;;;;;22.60;15.90;;;10.60;99.90;;;;;;5069213;28;20472;-59
2022/04/05 09:41:20;;;;;;;22.50;15.37;;;10.50;99.90;;;;;;5070086;28;20430;-59
2022/04/05 09:44:05;;;;;;;21.48;16.38;;;10.50;99.90;;;;;;5070470;28;20412;-58
2022/04/05 09:46:33;;;;;;;23.58;16.83;;;10.50;99.90;;;;;;5073693;28;20457;-57
2022/04/05 09:49:08;;;;;;;22.98;17.08;;;10.50;99.90;;;;;;5073738;28;20431;-58
2022/04/05 09:51:40;;;;;;;23.80;16.92;;;10.50;99.90;;;;;;5074681;28;20411;-59
2022/04/05 09:54:17;;;;;;;22.88;17.40;;;10.40;99.90;;;;;;5073826;28;20411;-60
2022/04/05 09:56:44;;;;;;;21.90;16.70;;;10.40;99.90;;;;;;5073263;28;20461;-59
2022/04/05 09:59:16;;;;;;;24.15;16.63;;;10.50;99.90;;;;;;5073791;28;20415;-58
2022/04/05 10:01:43;;;;;;;19.55;16.20;;;10.50;99.90;;;;;;5073583;28;20458;-59
2022/04/05 10:04:12;;;;;;;21.25;17.10;;;10.60;99.90;;;;;;5073585;28;20425;-60
2022/04/05 10:06:43;;;;;;;20.50;15.80;;;10.60;99.90;;;;;;5072299;28;20790;-60
2022/04/05 10:09:11;;;;;;;19.52;15.10;;;10.70;99.90;;;;;;5074129;28;20438;-59
2022/04/05 10:11:40;;;;;;;21.85;16.35;;;10.70;99.90;;;;;;5073602;28;20415;-59
2022/04/05 10:14:08;;;;;;;20.05;15.43;;;10.80;99.90;;;;;;5073908;28;20411;-60
2022/04/05 10:16:35;;;;;;;17.70;14.80;;;10.80;99.90;;;;;;5073246;28;20415;-60
2022/04/05 10:19:04;;;;;;;20.40;16.25;;;10.90;99.90;;;;;;5073870;28;20416;-60
2022/04/05 10:21:34;;;;;;;17.92;15.18;;;11.00;99.90;;;;;;5073478;28;20462;-60
2022/04/05 10:24:02;;;;;;;18.30;15.18;;;11.10;99.90;;;;;;5073609;28;20755;-61
2022/04/05 10:26:32;;;;;;;19.73;15.43;;;11.10;99.90;;;;;;5073094;28;20465;-60
2022/04/05 10:29:00;;;;;;;22.23;17.17;;;11.10;99.90;;;;;;5073939;28;20423;-60
2022/04/05 10:31:33;;;;;;;22.23;18.00;;;11.10;99.90;;;;;;5073723;28;20408;-60
2022/04/05 10:34:08;;;;;;;20.13;16.85;;;11.00;99.90;;;;;;5073173;28;20946;-60
2022/04/05 10:36:35;;;;;;;22.52;16.67;;;11.00;99.90;;;;;;5073115;28;20549;-60
2022/04/05 10:39:15;;;;;;;21.85;17.08;;;11.00;99.90;;;;;;5073135;28;20900;-60
2022/04/05 10:41:44;;;;;;;22.38;17.38;;;11.00;99.90;;;;;;5073425;28;20473;-60
2022/04/05 10:44:23;;;;;;;21.13;15.85;;;11.00;99.90;;;;;;5073468;28;20415;-60
2022/04/05 10:46:53;;;;;;;17.17;14.17;;;11.10;99.90;;;;;;5072816;28;20782;-60
2022/04/05 10:49:35;;;;;;;18.45;14.20;;;11.20;99.90;;;;;;5073572;28;20447;-60
2022/04/05 10:52:13;;;;;;;18.67;14.35;;;11.10;99.90;;;;;;5073519;28;20457;-60
2022/04/05 10:54:42;;;;;;;16.52;13.50;;;11.20;99.90;;;;;;5073193;28;20882;-60
2022/04/05 10:57:29;;;;;;;16.15;11.82;;;11.30;99.90;;;;;;5071226;28;20457;-60
2022/04/05 11:00:01;;;;;;;13.70;10.88;;;11.30;99.90;;;;;;5072928;28;20423;-60
2022/04/05 11:02:43;;;;;;;12.23;10.55;;;11.20;99.90;;;;;;5072987;28;20774;-60
2022/04/05 11:05:35;;;;;;;13.10;11.00;;;11.20;99.90;;;;;;5072972;28;20446;-60
2022/04/05 11:08:04;;;;;;;12.82;10.38;;;11.10;99.90;;;;;;5072172;28;20464;-60
2022/04/05 11:10:44;;;;;;;16.00;11.77;;;11.10;99.90;;;;;;5072780;28;20759;-60
2022/04/05 11:13:13;;;;;;;12.98;10.05;;;11.20;99.90;;;;;;5072927;28;20439;-60
2022/04/05 11:15:41;;;;;;;11.88;9.70;;;11.30;99.90;;;;;;5072619;28;20412;-60
2022/04/05 11:18:09;;;;;;;12.98;10.52;;;11.20;99.90;;;;;;5072185;28;20425;-58
2022/04/05 11:20:38;;;;;;;12.07;10.10;;;11.20;99.90;;;;;;5072030;28;20558;-60
2022/04/05 11:23:05;;;;;;;13.27;10.10;;;11.20;99.90;;;;;;5064589;28;20775;-61
2022/04/05 11:25:32;;;;;;;12.17;9.30;;;11.20;99.90;;;;;;5072505;28;20923;-61
2022/04/05 11:28:12;;;;;;;12.48;9.75;;;11.30;99.90;;;;;;5072643;28;20446;-62
2022/04/05 11:30:45;;;;;;;14.45;10.55;;;11.40;99.90;;;;;;5072178;28;20416;-62
2022/04/05 11:33:34;;;;;;;13.48;10.70;;;11.30;99.90;;;;;;5071690;28;20415;-62
2022/04/05 11:36:03;;;;;;;10.75;8.70;;;11.30;99.90;;;;;;5069568;28;20428;-62
2022/04/05 11:38:33;;;;;;;9.45;7.47;;;11.20;99.90;;;;;;5071888;28;20447;-62
2022/04/05 11:41:03;;;;;;;8.30;7.00;;;11.30;99.90;;;;;;5071713;28;20434;-59
2022/04/05 11:43:34;;;;;;;10.05;7.60;;;11.00;99.90;;;;;;5071194;28;20411;-63
2022/04/05 11:46:04;;;;;;;10.32;7.68;;;11.10;99.90;;;;;;5071576;28;20426;-62
2022/04/05 11:48:31;;;;;;;12.20;9.45;;;11.10;99.90;;;;;;5071829;28;20411;-63
2022/04/05 11:51:00;;;;;;;13.93;10.60;;;11.20;99.90;;;;;;5071866;28;20415;-61
2022/04/05 11:53:30;;;;;;;12.52;9.95;;;11.30;99.90;;;;;;5071500;28;20465;-63
2022/04/05 11:56:14;;;;;;;9.60;8.43;;;11.40;99.90;;;;;;5071218;28;20806;-59
2022/04/05 11:58:46;;;;;;;15.23;11.75;;;11.60;99.90;;;;;;5071667;28;20893;-60
2022/04/05 12:01:14;;;;;;;11.10;9.83;;;11.70;99.90;;;;;;5071324;28;20419;-63
2022/04/05 12:03:45;;;;;;;10.20;8.93;;;11.70;99.90;;;;;;5071233;28;20818;-65
2022/04/05 12:06:13;;;;;;;13.18;10.65;;;11.70;99.90;;;;;;5070953;28;20466;-61
2022/04/05 12:08:41;;;;;;;13.63;10.02;;;11.90;99.90;;;;;;5070809;28;20419;-61
2022/04/05 12:11:09;;;;;;;11.95;8.82;;;11.70;99.90;;;;;;5071034;28;20901;-60
2022/04/05 12:13:36;;;;;;;10.77;9.05;;;11.70;99.90;;;;;;5070851;28;20423;-60
2022/04/05 12:16:06;;;;;;;11.13;9.27;;;11.70;99.90;;;;;;5070612;28;20913;-61
2022/04/05 12:18:33;;;;;;;12.70;9.98;;;11.40;99.90;;;;;;5070966;28;20411;-59
2022/04/05 12:21:01;;;;;;;12.18;10.70;;;11.30;99.90;;;;;;5070639;28;20963;-59
2022/04/05 12:23:31;;;;;;;11.23;9.88;;;11.30;99.90;;;;;;5070606;28;20886;-60
2022/04/05 12:26:10;;;;;;;13.95;11.40;;;11.30;99.90;;;;;;5070737;28;20415;-61
2022/04/05 12:28:39;;;;;;;18.52;12.45;;;11.40;99.90;;;;;;5071062;28;20419;-61
2022/04/05 12:31:16;;;;;;;15.27;11.57;;;11.40;99.90;;;;;;5070683;28;20411;-60
2022/04/05 12:33:53;;;;;;;12.48;10.70;;;11.30;99.90;;;;;;5070335;28;20408;-61
2022/04/05 12:36:21;;;;;;;11.88;10.13;;;11.40;99.90;;;;;;5070206;28;20498;-61
2022/04/05 12:38:47;;;;;;;19.40;14.68;;;11.40;99.90;;;;;;5070960;28;20442;-61
2022/04/05 12:41:15;;;;;;;11.43;10.23;;;11.30;99.90;;;;;;5070661;28;20479;-63
2022/04/05 12:43:43;;;;;;;12.90;10.15;;;11.50;99.90;;;;;;5070669;28;20443;-61